Time;durP1;ratioP1;P1;durP2;ratioP2;P2;SDS_P1;SDS_P2;PMS_P1;PMS_P2;Temp;Humidity;BMP_temperature;BMP_pressure;BME280_temperature;BME280_humidity;BME280_pressure;Samples;Min_cycle;Max_cycle;Signal;HPM_P1;HPM_P2
2022/02/23 00:00:06;;;;;;;14.00;4.03;;;10.00;99.90;;;;;;5030795;28;20029;-81
2022/02/23 00:02:31;;;;;;;10.77;3.35;;;9.80;99.90;;;;;;5016089;28;20021;-81
2022/02/23 00:04:57;;;;;;;7.63;2.70;;;10.00;99.90;;;;;;5022828;28;20038;-82
2022/02/23 00:07:22;;;;;;;8.32;2.47;;;9.80;99.90;;;;;;5032235;28;20554;-83
2022/02/23 00:09:48;;;;;;;6.90;2.35;;;9.90;99.90;;;;;;5020556;28;20057;-84
2022/02/23 00:12:14;;;;;;;4.93;1.80;;;9.70;99.90;;;;;;5010693;28;20130;-83
2022/02/23 00:14:40;;;;;;;7.38;1.65;;;11.00;99.90;;;;;;5018564;28;20044;-81
2022/02/23 00:17:06;;;;;;;5.85;1.58;;;9.70;99.90;;;;;;5021600;28;20047;-85
2022/02/23 00:19:31;;;;;;;7.40;2.35;;;9.70;99.90;;;;;;5003689;28;20506;-84
2022/02/23 00:21:57;;;;;;;2.75;1.27;;;9.70;99.90;;;;;;5032290;28;20025;-84
2022/02/23 00:24:23;;;;;;;4.78;1.35;;;9.70;99.90;;;;;;5016831;28;20029;-84
2022/02/23 00:26:48;;;;;;;5.63;1.50;;;11.50;99.90;;;;;;5015206;28;20036;-82
2022/02/23 00:29:14;;;;;;;5.93;1.60;;;10.80;99.90;;;;;;5028723;28;20390;-82
2022/02/23 00:31:40;;;;;;;5.10;1.65;;;9.60;99.90;;;;;;5017065;28;20086;-81
2022/02/23 00:34:06;;;;;;;5.07;1.98;;;11.40;99.90;;;;;;5030076;28;20040;-81
2022/02/23 00:36:32;;;;;;;6.88;1.40;;;9.50;99.90;;;;;;5035902;28;20033;-84
2022/02/23 00:38:57;;;;;;;3.53;1.20;;;10.40;99.90;;;;;;5011329;28;20022;-82
2022/02/23 00:41:23;;;;;;;4.35;1.30;;;9.50;99.90;;;;;;5016061;28;20032;-81
2022/02/23 00:43:49;;;;;;;3.95;1.55;;;9.50;99.90;;;;;;5010701;28;20022;-79
2022/02/23 00:46:14;;;;;;;5.97;2.30;;;9.40;99.90;;;;;;5015032;28;20026;-79
2022/02/23 00:48:40;;;;;;;4.55;1.52;;;9.30;99.90;;;;;;5035609;28;20440;-82
2022/02/23 00:51:06;;;;;;;7.53;1.75;;;9.40;99.90;;;;;;5015248;28;20137;-82
2022/02/23 00:53:31;;;;;;;7.18;2.50;;;9.30;99.90;;;;;;5017260;28;20029;-81
2022/02/23 00:55:57;;;;;;;6.57;2.65;;;9.30;99.90;;;;;;5015063;28;20037;-83
2022/02/23 00:58:23;;;;;;;4.55;2.00;;;9.30;99.90;;;;;;5014341;28;20132;-80
2022/02/23 01:00:48;;;;;;;4.18;1.52;;;9.20;99.90;;;;;;5029850;28;20032;-83
2022/02/23 01:03:14;;;;;;;6.13;1.70;;;9.30;99.90;;;;;;5016792;28;20022;-82
2022/02/23 01:05:41;;;;;;;7.15;1.55;;;9.10;99.90;;;;;;5017205;28;20392;-81
2022/02/23 01:08:06;;;;;;;6.60;1.42;;;9.40;99.90;;;;;;5009972;28;20030;-84
2022/02/23 01:10:32;;;;;;;7.72;1.88;;;9.00;99.90;;;;;;5011417;28;20060;-82
2022/02/23 01:12:58;;;;;;;6.47;1.40;;;9.00;99.90;;;;;;5017729;28;20491;-83
2022/02/23 01:15:25;;;;;;;5.65;2.10;;;9.00;99.90;;;;;;5014461;28;20022;-82
2022/02/23 01:17:50;;;;;;;4.28;1.45;;;9.00;99.90;;;;;;5013970;28;20053;-82
2022/02/23 01:20:16;;;;;;;4.65;2.10;;;9.00;99.90;;;;;;5014870;28;20057;-83
2022/02/23 01:22:42;;;;;;;7.63;1.80;;;9.00;99.90;;;;;;5017677;28;20033;-83
2022/02/23 01:25:08;;;;;;;8.50;2.50;;;8.90;99.90;;;;;;5010286;28;20033;-82
2022/02/23 01:27:35;;;;;;;5.35;1.75;;;8.90;99.90;;;;;;5011603;28;20116;-83
2022/02/23 01:30:02;;;;;;;7.50;1.85;;;8.90;99.90;;;;;;5014456;28;20079;-84
2022/02/23 01:32:27;;;;;;;7.70;2.40;;;9.00;99.90;;;;;;5014508;28;20475;-82
2022/02/23 01:34:53;;;;;;;8.57;2.00;;;8.90;99.90;;;;;;5013289;28;20032;-85
2022/02/23 01:37:19;;;;;;;5.88;1.67;;;8.90;99.90;;;;;;5009554;28;20030;-82
2022/02/23 01:39:44;;;;;;;4.63;1.80;;;8.90;99.90;;;;;;5011307;28;20184;-86
2022/02/23 01:42:11;;;;;;;4.65;1.50;;;9.20;99.90;;;;;;5015604;28;20056;-82
2022/02/23 01:44:37;;;;;;;5.35;1.67;;;8.90;99.90;;;;;;5018405;28;20030;-83
2022/02/23 01:47:03;;;;;;;4.43;1.75;;;8.80;99.90;;;;;;5028336;28;20028;-82
2022/02/23 01:49:29;;;;;;;6.63;1.85;;;8.80;99.90;;;;;;5012841;28;20504;-85
2022/02/23 01:51:55;;;;;;;4.03;1.50;;;8.80;99.90;;;;;;5010813;28;20053;-82
2022/02/23 01:54:21;;;;;;;5.45;1.58;;;8.80;99.90;;;;;;5018309;28;20067;-83
2022/02/23 01:56:46;;;;;;;4.93;1.52;;;8.90;99.90;;;;;;5015846;28;20040;-82
2022/02/23 01:59:12;;;;;;;5.85;1.52;;;8.80;99.90;;;;;;5014158;28;20092;-85
2022/02/23 02:01:38;;;;;;;10.75;2.17;;;8.70;99.90;;;;;;5012024;28;20430;-82
2022/02/23 02:04:04;;;;;;;5.05;1.70;;;8.70;99.90;;;;;;5011817;28;20018;-83
2022/02/23 02:06:29;;;;;;;7.88;1.67;;;8.70;99.90;;;;;;5011975;28;20376;-84
2022/02/23 02:08:55;;;;;;;4.75;1.30;;;8.70;99.90;;;;;;5030323;28;20033;-82
2022/02/23 02:11:21;;;;;;;4.53;1.55;;;8.70;99.90;;;;;;5018453;28;20107;-83
2022/02/23 02:13:46;;;;;;;7.38;1.83;;;8.60;99.90;;;;;;5032834;28;20369;-84
2022/02/23 02:16:12;;;;;;;5.85;1.30;;;10.20;99.90;;;;;;5032744;28;20026;-85
2022/02/23 02:18:37;;;;;;;6.47;1.63;;;8.50;99.90;;;;;;5021386;28;20029;-83
2022/02/23 02:21:03;;;;;;;6.68;1.88;;;8.50;99.90;;;;;;5031228;28;20036;-84
2022/02/23 02:23:29;;;;;;;5.20;1.50;;;8.40;99.90;;;;;;5014545;28;20026;-84
2022/02/23 02:25:55;;;;;;;6.35;1.55;;;8.40;99.90;;;;;;5030814;28;20622;-85
2022/02/23 02:28:20;;;;;;;3.70;1.42;;;8.80;99.90;;;;;;5013063;28;20041;-86
2022/02/23 02:30:46;;;;;;;5.63;1.60;;;8.30;99.90;;;;;;5034784;28;20033;-85
2022/02/23 02:33:12;;;;;;;5.40;1.70;;;8.30;99.90;;;;;;5012462;28;20038;-83
2022/02/23 02:35:40;;;;;;;4.55;1.60;;;8.20;99.90;;;;;;5014995;28;20068;-86
2022/02/23 02:38:06;;;;;;;6.65;1.77;;;8.20;99.90;;;;;;5033918;28;20060;-83
2022/02/23 02:40:34;;;;;;;4.53;2.00;;;8.20;99.90;;;;;;5012662;28;20090;-85
2022/02/23 02:43:00;;;;;;;3.95;1.40;;;8.10;99.90;;;;;;5013344;28;20025;-84
2022/02/23 02:45:26;;;;;;;7.78;2.20;;;8.00;99.90;;;;;;5015233;28;20108;-85
2022/02/23 02:47:52;;;;;;;7.93;2.00;;;8.00;99.90;;;;;;5021830;28;20049;-86
2022/02/23 02:50:17;;;;;;;7.43;2.22;;;8.00;99.90;;;;;;5013911;28;20033;-86
2022/02/23 02:52:43;;;;;;;6.32;2.40;;;7.90;99.90;;;;;;5018385;28;20064;-84
2022/02/23 02:55:09;;;;;;;4.63;2.13;;;7.90;99.90;;;;;;5034273;28;20063;-83
2022/02/23 02:57:37;;;;;;;8.32;2.28;;;7.90;99.90;;;;;;5023801;28;20059;-85
2022/02/23 03:00:06;;;;;;;7.15;2.40;;;8.50;99.90;;;;;;5021076;28;20044;-85
2022/02/23 03:02:32;;;;;;;6.75;2.30;;;7.80;99.90;;;;;;5033147;28;20025;-83
2022/02/23 03:04:57;;;;;;;6.50;2.40;;;7.70;99.90;;;;;;5018551;28;20025;-84
2022/02/23 03:07:23;;;;;;;8.20;2.33;;;7.70;99.90;;;;;;5016405;28;20030;-83
2022/02/23 03:09:49;;;;;;;7.25;2.10;;;7.60;99.90;;;;;;5035027;28;20061;-83
2022/02/23 03:12:14;;;;;;;6.70;2.47;;;7.60;99.90;;;;;;5030564;28;20030;-83
2022/02/23 03:14:40;;;;;;;8.75;2.00;;;7.50;99.90;;;;;;5033476;28;20434;-83
2022/02/23 03:17:06;;;;;;;6.47;1.92;;;8.80;99.90;;;;;;5029179;28;21818;-84
2022/02/23 03:19:32;;;;;;;5.78;2.00;;;7.50;99.90;;;;;;5020734;28;20026;-83
2022/02/23 03:21:57;;;;;;;8.75;2.67;;;7.40;99.90;;;;;;5017946;28;20514;-83
2022/02/23 03:24:23;;;;;;;11.00;2.60;;;7.90;99.90;;;;;;5010779;28;20057;-84
2022/02/23 03:26:48;;;;;;;9.45;2.65;;;7.50;99.90;;;;;;5011654;28;20076;-83
2022/02/23 03:29:14;;;;;;;12.38;3.22;;;7.50;99.90;;;;;;5033029;28;20036;-83
2022/02/23 03:31:40;;;;;;;6.38;2.00;;;7.50;99.90;;;;;;5015699;28;20041;-82
2022/02/23 03:34:05;;;;;;;8.55;2.95;;;7.40;99.90;;;;;;5018957;28;20112;-83
2022/02/23 03:36:33;;;;;;;10.38;3.35;;;7.40;99.90;;;;;;5033142;28;20046;-81
2022/02/23 03:38:59;;;;;;;12.20;3.55;;;7.30;99.90;;;;;;5011412;28;20100;-80
2022/02/23 03:41:24;;;;;;;10.90;3.30;;;7.30;99.90;;;;;;5034541;28;20072;-83
2022/02/23 03:43:50;;;;;;;6.40;2.30;;;7.30;99.90;;;;;;5030929;28;20033;-80
2022/02/23 03:46:16;;;;;;;6.40;2.15;;;8.30;99.90;;;;;;5012131;28;20096;-83
2022/02/23 03:48:42;;;;;;;5.43;2.20;;;7.30;99.90;;;;;;5016624;28;20527;-82
2022/02/23 03:51:09;;;;;;;7.90;2.40;;;7.20;99.90;;;;;;5020396;28;20029;-81
2022/02/23 03:53:35;;;;;;;6.70;2.00;;;7.20;99.90;;;;;;5026586;28;20022;-82
2022/02/23 03:56:01;;;;;;;6.15;2.00;;;7.10;99.90;;;;;;5017794;28;20483;-82
2022/02/23 03:58:26;;;;;;;8.63;2.88;;;7.30;99.90;;;;;;5016917;28;20089;-85
2022/02/23 04:00:52;;;;;;;5.28;2.17;;;7.00;99.90;;;;;;5036653;28;20050;-80
2022/02/23 04:03:18;;;;;;;7.82;3.05;;;7.00;99.90;;;;;;5022794;28;20028;-82
2022/02/23 04:05:44;;;;;;;6.07;2.10;;;6.80;99.90;;;;;;5016105;28;20021;-82
2022/02/23 04:08:10;;;;;;;4.65;2.05;;;6.80;99.90;;;;;;5010466;28;20101;-83
2022/02/23 04:10:36;;;;;;;6.13;1.85;;;7.20;99.90;;;;;;5011198;28;20045;-84
2022/02/23 04:13:03;;;;;;;7.88;2.30;;;7.90;99.90;;;;;;5017994;28;20025;-84
2022/02/23 04:15:29;;;;;;;6.18;1.73;;;6.70;99.90;;;;;;5017995;28;20035;-83
2022/02/23 04:17:55;;;;;;;9.70;2.38;;;6.60;99.90;;;;;;5034031;28;20093;-80
2022/02/23 04:20:20;;;;;;;6.00;2.50;;;7.00;99.90;;;;;;5012015;28;20434;-82
2022/02/23 04:22:46;;;;;;;4.43;2.15;;;6.50;99.90;;;;;;5012621;28;20029;-81
2022/02/23 04:25:12;;;;;;;7.05;1.88;;;6.50;99.90;;;;;;5034073;28;20052;-82
2022/02/23 04:27:38;;;;;;;6.68;1.80;;;6.40;99.90;;;;;;5018788;28;20061;-81
2022/02/23 04:30:06;;;;;;;4.95;1.98;;;6.80;99.90;;;;;;5016953;28;20094;-82
2022/02/23 04:32:33;;;;;;;9.40;2.50;;;6.40;99.90;;;;;;5002617;28;20037;-82
2022/02/23 04:34:58;;;;;;;5.38;2.10;;;6.40;99.90;;;;;;5019927;28;20029;-86
2022/02/23 04:37:25;;;;;;;12.40;3.55;;;7.30;99.90;;;;;;5013947;28;20036;-82
2022/02/23 04:39:51;;;;;;;9.68;3.10;;;6.40;99.90;;;;;;5034450;28;20044;-83
2022/02/23 04:42:17;;;;;;;9.70;4.68;;;8.10;99.90;;;;;;5021843;28;20120;-84
2022/02/23 04:44:42;;;;;;;6.43;3.13;;;6.20;99.90;;;;;;5017001;28;20054;-84
2022/02/23 04:47:08;;;;;;;7.00;3.28;;;6.10;99.90;;;;;;5036955;28;20049;-84
2022/02/23 04:49:34;;;;;;;6.50;2.40;;;6.20;99.90;;;;;;5015123;28;20041;-85
2022/02/23 04:52:00;;;;;;;8.60;2.70;;;6.30;99.90;;;;;;5037908;28;20030;-83
2022/02/23 04:54:25;;;;;;;6.63;2.78;;;6.40;99.90;;;;;;5037483;28;20509;-83
2022/02/23 04:56:51;;;;;;;8.00;2.95;;;6.10;99.90;;;;;;5003551;28;20029;-84
2022/02/23 04:59:16;;;;;;;6.15;2.58;;;6.00;99.90;;;;;;5026335;28;20025;-84
2022/02/23 05:01:42;;;;;;;7.63;2.55;;;7.80;99.90;;;;;;5021166;28;20030;-85
2022/02/23 05:04:08;;;;;;;5.55;2.05;;;5.90;99.90;;;;;;5017867;28;20026;-81
2022/02/23 05:06:33;;;;;;;10.07;2.40;;;8.10;99.90;;;;;;5034776;28;20026;-82
2022/02/23 05:08:59;;;;;;;4.97;2.55;;;5.80;99.90;;;;;;5016204;28;20034;-83
2022/02/23 05:11:25;;;;;;;4.32;1.92;;;5.90;99.90;;;;;;5016313;28;20033;-80
2022/02/23 05:13:52;;;;;;;6.38;2.13;;;5.80;99.90;;;;;;5034085;28;20064;-81
2022/02/23 05:16:17;;;;;;;9.45;3.35;;;5.80;99.90;;;;;;5025522;28;20025;-86
2022/02/23 05:18:43;;;;;;;6.63;2.60;;;5.80;99.90;;;;;;5048968;28;20013;-88
2022/02/23 05:21:09;;;;;;;6.18;2.60;;;5.80;99.90;;;;;;5031123;28;20029;-88
2022/02/23 05:23:35;;;;;;;5.15;2.50;;;8.30;99.90;;;;;;5027359;28;20032;-89
2022/02/23 05:26:01;;;;;;;5.97;2.38;;;8.30;99.90;;;;;;5034157;28;20009;-82
2022/02/23 05:28:28;;;;;;;7.50;2.20;;;6.70;99.90;;;;;;5022998;28;20017;-85
2022/02/23 05:30:54;;;;;;;5.88;2.53;;;8.10;99.90;;;;;;5022390;28;20021;-83
2022/02/23 05:33:20;;;;;;;5.60;2.10;;;5.60;99.90;;;;;;5020369;28;20049;-81
2022/02/23 05:35:47;;;;;;;5.53;2.53;;;5.60;99.90;;;;;;5039912;28;20060;-81
2022/02/23 05:38:12;;;;;;;6.85;2.67;;;6.70;99.90;;;;;;5019278;28;20033;-82
2022/02/23 05:40:38;;;;;;;8.43;2.72;;;8.00;99.90;;;;;;5027566;28;20132;-84
2022/02/23 05:43:04;;;;;;;7.22;2.33;;;5.50;99.90;;;;;;5034375;28;20045;-81
2022/02/23 05:45:30;;;;;;;6.85;2.70;;;5.40;99.90;;;;;;5017235;28;20053;-82
2022/02/23 05:47:55;;;;;;;7.13;2.42;;;5.40;99.90;;;;;;5033858;28;20252;-85
2022/02/23 05:50:21;;;;;;;5.63;2.42;;;5.00;99.90;;;;;;5030814;28;20022;-83
2022/02/23 05:52:47;;;;;;;7.82;3.28;;;;;;;;;;5031989;28;20033;-84
2022/02/23 05:55:13;;;;;;;5.25;2.40;;;5.30;99.90;;;;;;5040130;28;20075;-82
2022/02/23 05:57:39;;;;;;;10.18;3.05;;;6.50;99.90;;;;;;5018207;28;20073;-86
2022/02/23 06:00:06;;;;;;;9.85;2.78;;;6.10;99.90;;;;;;5013264;28;20029;-85
2022/02/23 06:02:32;;;;;;;7.55;2.53;;;5.20;99.90;;;;;;5032837;28;20034;-83
2022/02/23 06:04:57;;;;;;;5.85;2.72;;;5.00;99.90;;;;;;5029627;28;20026;-84
2022/02/23 06:07:23;;;;;;;7.03;2.88;;;;;;;;;;5020193;28;20454;-80
2022/02/23 06:09:49;;;;;;;10.50;3.30;;;;;;;;;;5040760;28;20033;-82
2022/02/23 06:12:15;;;;;;;9.35;3.85;;;5.10;99.90;;;;;;5023161;28;20514;-84
2022/02/23 06:14:41;;;;;;;8.63;3.10;;;4.70;99.90;;;;;;5017672;28;20152;-84
2022/02/23 06:17:07;;;;;;;6.93;3.05;;;7.20;99.90;;;;;;5017394;28;20038;-87
2022/02/23 06:19:33;;;;;;;9.93;3.63;;;;;;;;;;5013787;28;20026;-84
2022/02/23 06:21:59;;;;;;;9.55;3.40;;;;;;;;;;5014702;28;20026;-84
2022/02/23 06:24:24;;;;;;;8.75;3.60;;;5.00;99.90;;;;;;5015667;28;20049;-82
2022/02/23 06:26:51;;;;;;;7.13;3.58;;;;;;;;;;5011654;28;20038;-84
2022/02/23 06:29:17;;;;;;;11.80;4.47;;;5.00;99.90;;;;;;5009238;28;20056;-86
2022/02/23 06:31:56;;;;;;;11.45;4.60;;;5.00;99.90;;;;;;5025518;28;20048;-84
2022/02/23 06:34:22;;;;;;;11.75;4.18;;;;;;;;;;5010034;28;20366;-86
2022/02/23 06:36:48;;;;;;;10.35;3.90;;;5.00;99.90;;;;;;5025836;28;20037;-86
2022/02/23 06:39:14;;;;;;;10.50;3.92;;;;;;;;;;5029703;28;20035;-81
2022/02/23 06:41:43;;;;;;;11.73;4.22;;;4.90;99.90;;;;;;5007265;28;20044;-84
2022/02/23 06:44:09;;;;;;;9.98;3.85;;;8.50;99.90;;;;;;5026595;28;20034;-84
2022/02/23 06:46:35;;;;;;;10.25;3.75;;;6.80;99.90;;;;;;5005546;28;20029;-83
2022/02/23 06:49:01;;;;;;;8.75;4.07;;;7.40;99.90;;;;;;5026424;28;20088;-81
2022/02/23 06:51:26;;;;;;;9.45;3.55;;;4.80;99.90;;;;;;5009172;28;20037;-83
2022/02/23 06:53:52;;;;;;;10.40;4.10;;;4.80;99.90;;;;;;5011317;28;20136;-83
2022/02/23 06:56:18;;;;;;;12.65;4.40;;;;;;;;;;5026809;28;20121;-82
2022/02/23 06:58:49;;;;;;;8.38;4.07;;;4.80;99.90;;;;;;5011390;28;20030;-82
2022/02/23 07:01:18;;;;;;;10.70;4.03;;;4.80;99.90;;;;;;5016474;28;20029;-82
2022/02/23 07:03:45;;;;;;;12.18;4.40;;;4.80;99.90;;;;;;5032839;28;20030;-82
2022/02/23 07:06:12;;;;;;;13.98;4.35;;;4.80;99.90;;;;;;5033503;28;20022;-81
2022/02/23 07:08:43;;;;;;;11.07;4.03;;;4.80;99.90;;;;;;5008087;28;20399;-81
2022/02/23 07:11:08;;;;;;;11.20;5.13;;;7.40;99.90;;;;;;5015232;28;20039;-84
2022/02/23 07:13:34;;;;;;;14.73;5.13;;;3.70;99.90;;;;;;5017807;28;20366;-83
2022/02/23 07:16:00;;;;;;;11.25;4.90;;;6.10;99.90;;;;;;5032830;28;20394;-83
2022/02/23 07:18:25;;;;;;;11.45;4.80;;;4.80;99.90;;;;;;5017326;28;20033;-82
2022/02/23 07:20:51;;;;;;;13.27;5.20;;;4.80;99.90;;;;;;5015022;28;20025;-85
2022/02/23 07:23:17;;;;;;;11.63;5.07;;;4.80;99.90;;;;;;5033383;28;20049;-82
2022/02/23 07:25:42;;;;;;;11.40;5.15;;;7.50;99.90;;;;;;5032306;28;20117;-80
2022/02/23 07:28:08;;;;;;;10.52;4.88;;;7.00;99.90;;;;;;5012842;28;20041;-83
2022/02/23 07:30:34;;;;;;;11.57;5.38;;;4.60;99.90;;;;;;5012842;28;20033;-88
2022/02/23 07:33:00;;;;;;;13.93;6.03;;;6.40;99.90;;;;;;5029484;28;20030;-80
2022/02/23 07:35:27;;;;;;;15.68;5.00;;;4.90;99.90;;;;;;5014731;28;20120;-81
2022/02/23 07:37:54;;;;;;;11.73;5.55;;;5.00;99.90;;;;;;5020138;28;20076;-82
2022/02/23 07:40:22;;;;;;;11.95;4.40;;;5.00;99.90;;;;;;5014728;28;20025;-85
2022/02/23 07:42:49;;;;;;;11.98;4.97;;;;;;;;;;5023652;28;20084;-84
2022/02/23 07:45:15;;;;;;;13.70;4.70;;;5.00;99.90;;;;;;5041708;28;20037;-84
2022/02/23 07:47:40;;;;;;;11.77;4.97;;;7.40;99.90;;;;;;5020313;28;20029;-82
2022/02/23 07:50:11;;;;;;;12.18;5.05;;;4.80;99.90;;;;;;5019013;28;20037;-85
2022/02/23 07:52:37;;;;;;;11.52;5.10;;;5.10;99.90;;;;;;5020295;28;20029;-81
2022/02/23 07:55:05;;;;;;;9.30;4.53;;;6.50;99.90;;;;;;5022137;28;20590;-83
2022/02/23 07:57:30;;;;;;;10.88;4.40;;;5.30;99.90;;;;;;5028250;28;20049;-83
2022/02/23 07:59:56;;;;;;;12.95;5.72;;;;;;;;;;5011568;28;20518;-85
2022/02/23 08:02:23;;;;;;;7.90;4.32;;;5.40;99.90;;;;;;5012601;28;20025;-82
2022/02/23 08:04:52;;;;;;;11.23;5.47;;;;;;;;;;5042062;28;20030;-84
2022/02/23 08:07:21;;;;;;;15.25;5.93;;;5.50;99.90;;;;;;5017463;28;20034;-83
2022/02/23 08:09:48;;;;;;;12.00;4.93;;;7.50;99.90;;;;;;5036912;28;20025;-86
2022/02/23 08:12:14;;;;;;;10.45;5.25;;;6.40;99.90;;;;;;5018978;28;20087;-81
2022/02/23 08:14:40;;;;;;;14.55;6.78;;;6.00;99.90;;;;;;5019287;28;20057;-87
2022/02/23 08:19:51;;;;;;;10.88;5.38;;;8.20;99.90;;;;;;5036212;28;20088;-83
2022/02/23 08:22:18;;;;;;;14.07;5.85;;;7.20;99.90;;;;;;5017774;28;20029;-86
2022/02/23 08:24:45;;;;;;;16.45;6.97;;;4.60;99.90;;;;;;5025136;28;20076;-80
2022/02/23 08:27:13;;;;;;;17.90;7.20;;;5.90;99.90;;;;;;5016569;28;20085;-85
2022/02/23 08:29:40;;;;;;;29.70;9.30;;;5.90;99.90;;;;;;5025605;28;20054;-85
2022/02/23 08:32:08;;;;;;;15.02;5.10;;;6.70;99.90;;;;;;5039091;28;20033;-86
2022/02/23 08:34:36;;;;;;;9.43;5.13;;;7.00;99.90;;;;;;5027216;28;20093;-85
2022/02/23 08:37:13;;;;;;;14.00;5.70;;;7.50;99.90;;;;;;5018415;28;20061;-87
2022/02/23 08:39:43;;;;;;;16.05;5.40;;;6.40;99.90;;;;;;5003296;28;20030;-86
2022/02/23 08:42:11;;;;;;;14.77;5.47;;;6.30;99.90;;;;;;5006564;28;20033;-85
2022/02/23 08:44:41;;;;;;;12.52;4.60;;;6.40;99.90;;;;;;5022677;28;20025;-85
2022/02/23 08:47:10;;;;;;;14.88;5.22;;;6.70;99.90;;;;;;5017741;28;20030;-85
2022/02/23 08:49:38;;;;;;;9.63;5.15;;;5.60;99.90;;;;;;5010220;28;20041;-86
2022/02/23 08:52:05;;;;;;;8.63;4.47;;;6.80;99.90;;;;;;5013822;28;20033;-83
2022/02/23 08:54:46;;;;;;;11.45;4.72;;;6.80;99.90;;;;;;5037025;28;20038;-83
2022/02/23 08:57:12;;;;;;;11.05;4.78;;;7.00;99.90;;;;;;5038002;28;20030;-83
2022/02/23 08:59:43;;;;;;;10.95;5.18;;;7.40;99.90;;;;;;5042395;28;20021;-84
2022/02/23 09:02:09;;;;;;;17.17;5.10;;;6.60;99.90;;;;;;5034068;28;20033;-84
2022/02/23 09:04:37;;;;;;;12.18;4.75;;;7.90;99.90;;;;;;5037038;28;20450;-85
2022/02/23 09:07:04;;;;;;;11.38;5.22;;;6.90;99.90;;;;;;5019700;28;20029;-83
2022/02/23 09:09:30;;;;;;;12.10;4.80;;;9.00;99.90;;;;;;5019775;28;20035;-84
2022/02/23 09:11:57;;;;;;;9.70;3.95;;;8.00;99.90;;;;;;5030002;28;20029;-82
2022/02/23 09:14:23;;;;;;;12.43;4.82;;;7.80;99.90;;;;;;5020340;28;20025;-85
2022/02/23 09:16:49;;;;;;;10.35;4.15;;;7.80;99.90;;;;;;5012189;28;20030;-82
2022/02/23 09:19:18;;;;;;;24.40;10.43;;;6.60;99.90;;;;;;5033437;28;20022;-82
2022/02/23 09:21:46;;;;;;;11.35;4.22;;;7.70;99.90;;;;;;5020084;28;20034;-86
2022/02/23 09:24:12;;;;;;;12.85;4.00;;;8.10;99.90;;;;;;5030320;28;20032;-84
2022/02/23 09:26:41;;;;;;;15.38;4.32;;;8.10;99.90;;;;;;5027067;28;20025;-87
2022/02/23 09:29:10;;;;;;;12.35;4.40;;;8.30;99.90;;;;;;5023954;28;20101;-83
2022/02/23 09:31:37;;;;;;;13.95;4.32;;;8.30;99.90;;;;;;5030514;28;20018;-85
2022/02/23 09:34:38;;;;;;;12.18;4.20;;;8.30;99.90;;;;;;5026441;22;20487;-85
2022/02/23 09:37:18;;;;;;;13.00;4.03;;;8.60;99.90;;;;;;4998059;28;20057;-87
2022/02/23 09:44:04;;;;;;;14.70;4.70;;;8.90;99.90;;;;;;5001159;28;20454;-89
2022/02/23 09:54:14;;;;;;;8.52;3.60;;;9.40;99.90;;;;;;4982293;28;20030;-88
2022/02/23 09:57:32;;;;;;;16.05;4.38;;;9.30;99.90;;;;;;4978385;28;20035;-86
2022/02/23 10:01:32;;;;;;;11.40;4.00;;;9.30;99.90;;;;;;4961899;28;20037;-88
2022/02/23 10:18:40;;;;;;;12.05;3.08;;;10.00;99.90;;;;;;4839652;29;20083;-89
2022/02/23 10:32:31;;;;;;;16.92;3.63;;;11.40;99.90;;;;;;4806714;29;20049;-88
2022/02/23 10:35:56;;;;;;;15.23;3.08;;;10.60;99.90;;;;;;4821396;29;20049;-91
2022/02/23 10:49:39;;;;;;;6.60;1.58;;;10.70;99.90;;;;;;4880600;29;20077;-88
2022/02/23 10:53:09;;;;;;;7.45;2.10;;;10.90;99.90;;;;;;4835818;29;20052;-88
2022/02/23 10:56:36;;;;;;;8.45;2.20;;;11.20;99.90;;;;;;4790249;29;20124;-86
2022/02/23 11:00:28;;;;;;;10.75;2.55;;;10.90;99.90;;;;;;4831374;29;20072;-88
2022/02/23 11:07:04;;;;;;;10.18;2.63;;;11.20;99.90;;;;;;4869156;29;20040;-86
2022/02/23 11:09:34;;;;;;;7.32;1.67;;;11.10;99.90;;;;;;4867401;29;20041;-89
2022/02/23 11:12:06;;;;;;;7.50;1.67;;;11.20;99.90;;;;;;4871215;29;20033;-86
2022/02/23 11:14:34;;;;;;;8.05;2.03;;;11.20;99.90;;;;;;4969052;28;21031;-87
2022/02/23 11:17:00;;;;;;;7.35;2.00;;;11.30;99.90;;;;;;5049916;23;20069;-86
2022/02/23 11:19:30;;;;;;;6.85;1.80;;;10.70;99.90;;;;;;5000521;28;20029;-85
2022/02/23 11:21:58;;;;;;;9.50;1.90;;;12.70;97.30;;;;;;5013987;28;20034;-85
2022/02/23 11:24:26;;;;;;;12.50;2.22;;;12.50;97.90;;;;;;5003024;28;20055;-84
2022/02/23 11:26:55;;;;;;;6.50;1.70;;;11.50;96.60;;;;;;5005745;28;20030;-80
2022/02/23 11:29:27;;;;;;;10.00;1.80;;;12.20;97.00;;;;;;5006082;28;20041;-82
2022/02/23 11:31:54;;;;;;;7.85;1.83;;;11.60;96.10;;;;;;5022822;28;20041;-86
2022/02/23 11:34:22;;;;;;;8.15;1.85;;;13.40;96.20;;;;;;5019717;28;20030;-84
2022/02/23 11:36:49;;;;;;;7.45;1.90;;;11.80;96.20;;;;;;5009763;28;20036;-82
2022/02/23 11:39:19;;;;;;;7.72;2.22;;;11.80;95.40;;;;;;5024893;28;20033;-79
2022/02/23 11:41:52;;;;;;;7.93;2.38;;;11.80;91.70;;;;;;4989987;28;20037;-83
2022/02/23 11:44:26;;;;;;;13.20;2.22;;;12.50;92.70;;;;;;5004138;28;20037;-83
2022/02/23 11:53:14;;;;;;;3.90;1.25;;;12.10;90.50;;;;;;5019150;28;20310;-80
2022/02/23 11:56:17;;;;;;;6.20;1.73;;;11.90;90.60;;;;;;5004739;28;20065;-81
2022/02/23 11:59:06;;;;;;;5.55;1.40;;;11.90;90.90;;;;;;5015513;28;20029;-82
2022/02/23 12:01:57;;;;;;;7.43;2.00;;;11.90;90.70;;;;;;5016070;28;20068;-82
2022/02/23 12:04:22;;;;;;;6.75;1.75;;;12.00;90.30;;;;;;5003017;28;20022;-85
2022/02/23 12:07:13;;;;;;;4.90;1.20;;;12.60;90.30;;;;;;5005729;28;20072;-83
2022/02/23 12:09:57;;;;;;;5.57;1.42;;;12.20;90.10;;;;;;5000421;28;20468;-82
2022/02/23 12:12:52;;;;;;;4.85;1.67;;;13.30;90.30;;;;;;5017690;28;20120;-82
2022/02/23 12:15:33;;;;;;;7.10;1.45;;;12.20;90.60;;;;;;5010081;28;20037;-80
2022/02/23 12:18:15;;;;;;;4.63;1.60;;;12.30;86.60;;;;;;5016144;28;20575;-82
2022/02/23 12:20:45;;;;;;;7.25;1.58;;;12.20;88.70;;;;;;4999475;28;20052;-79
2022/02/23 12:23:19;;;;;;;5.03;1.50;;;12.20;88.00;;;;;;5020886;28;20022;-83
2022/02/23 12:25:48;;;;;;;6.43;1.40;;;12.80;89.00;;;;;;5006451;28;20034;-83
2022/02/23 12:28:22;;;;;;;6.45;1.95;;;12.30;90.20;;;;;;5016124;28;20026;-84
2022/02/23 12:31:01;;;;;;;6.53;1.70;;;12.30;88.70;;;;;;5017888;28;20029;-82
2022/02/23 12:33:27;;;;;;;9.13;3.00;;;12.30;90.50;;;;;;5016262;28;20037;-82
2022/02/23 12:35:54;;;;;;;5.00;1.80;;;12.50;90.70;;;;;;5003931;28;20030;-84
2022/02/23 12:38:44;;;;;;;6.40;1.70;;;12.50;90.20;;;;;;4995996;28;20036;-81
2022/02/23 12:41:23;;;;;;;7.32;1.60;;;12.30;85.90;;;;;;5013111;28;20033;-82
2022/02/23 12:44:07;;;;;;;6.05;1.90;;;12.30;86.10;;;;;;4996973;28;20022;-83
2022/02/23 12:46:36;;;;;;;5.82;1.90;;;12.50;85.90;;;;;;5001084;28;20033;-83
2022/02/23 12:49:03;;;;;;;7.20;1.70;;;13.40;85.70;;;;;;4997919;28;20026;-83
2022/02/23 12:51:29;;;;;;;10.27;4.68;;;12.50;84.90;;;;;;4999660;28;20094;-81
2022/02/23 12:53:58;;;;;;;4.85;1.77;;;13.60;82.60;;;;;;5014459;28;20120;-83
2022/02/23 12:56:52;;;;;;;7.43;2.50;;;12.40;81.70;;;;;;4999875;28;20021;-81
2022/02/23 12:59:20;;;;;;;6.43;1.63;;;14.60;88.10;;;;;;5003639;28;20037;-83
2022/02/23 13:01:52;;;;;;;7.82;1.63;;;12.40;87.60;;;;;;5010874;28;20033;-82
2022/02/23 13:04:30;;;;;;;7.35;1.50;;;14.80;86.90;;;;;;5012329;28;20057;-82
2022/02/23 13:06:58;;;;;;;9.02;2.38;;;11.70;85.30;;;;;;4995155;28;20049;-84
2022/02/23 13:09:25;;;;;;;6.68;1.70;;;13.10;85.70;;;;;;5013932;28;20045;-85
2022/02/23 13:11:57;;;;;;;7.47;1.70;;;13.30;80.70;;;;;;5001085;28;20049;-84
2022/02/23 13:14:24;;;;;;;8.15;2.00;;;13.10;76.50;;;;;;5020580;28;20028;-81
2022/02/23 13:16:56;;;;;;;8.02;1.50;;;15.00;77.20;;;;;;5000699;28;20089;-82
2022/02/23 13:19:31;;;;;;;3.50;1.38;;;14.80;76.70;;;;;;5014367;28;20022;-81
2022/02/23 13:21:59;;;;;;;3.63;1.40;;;14.50;73.70;;;;;;5006046;28;20026;-82
2022/02/23 13:24:30;;;;;;;6.20;2.10;;;13.30;71.10;;;;;;5020330;28;20026;-81
2022/02/23 13:26:57;;;;;;;4.85;1.20;;;13.20;72.10;;;;;;4996998;28;20026;-81
2022/02/23 13:29:26;;;;;;;5.63;1.40;;;14.20;72.40;;;;;;5022375;28;20038;-84
2022/02/23 13:32:02;;;;;;;2.92;1.30;;;13.40;72.80;;;;;;5005658;28;20041;-85
2022/02/23 13:34:29;;;;;;;5.18;1.40;;;13.10;74.10;;;;;;4997919;28;20030;-84
2022/02/23 13:36:57;;;;;;;6.30;2.70;;;13.00;76.20;;;;;;4999974;28;20033;-81
2022/02/23 13:39:33;;;;;;;5.25;1.45;;;12.90;77.60;;;;;;5003064;28;20088;-82
2022/02/23 13:42:09;;;;;;;5.15;1.35;;;14.00;75.80;;;;;;5013613;28;20029;-80
2022/02/23 13:44:40;;;;;;;6.00;1.98;;;12.90;72.50;;;;;;4999659;28;20029;-80
2022/02/23 13:47:15;;;;;;;6.70;1.60;;;12.90;73.30;;;;;;5003232;28;20487;-81
2022/02/23 13:50:03;;;;;;;4.32;1.20;;;13.00;70.50;;;;;;5005767;28;20045;-81
2022/02/23 13:52:35;;;;;;;4.68;1.40;;;13.00;66.10;;;;;;5018332;28;20463;-83
2022/02/23 13:55:16;;;;;;;3.88;1.20;;;13.00;66.30;;;;;;5001467;28;20023;-85
2022/02/23 13:57:56;;;;;;;5.00;1.50;;;12.90;67.20;;;;;;5001962;28;20427;-81
2022/02/23 14:00:26;;;;;;;6.28;1.20;;;12.80;67.20;;;;;;5019866;28;20025;-81
2022/02/23 14:03:07;;;;;;;5.78;1.23;;;13.40;66.30;;;;;;5019462;28;20121;-79
2022/02/23 14:05:33;;;;;;;2.55;1.10;;;12.90;67.70;;;;;;5023780;28;20026;-81
2022/02/23 14:08:07;;;;;;;3.92;1.63;;;13.00;69.20;;;;;;5024783;28;20484;-78